sensor_id;sensor_type;location;lat;lon;timestamp;pressure;altitude;pressure_sealevel;temperature;humidity
60976;BME280;46849;48.154;17.042;2022-11-15T00:00:31;99111.16;;;4.21;100.00
60976;BME280;46849;48.154;17.042;2022-11-15T00:03:35;99099.91;;;4.22;100.00
60976;BME280;46849;48.154;17.042;2022-11-15T00:06:39;99111.16;;;4.21;100.00
60976;BME280;46849;48.154;17.042;2022-11-15T00:09:46;99099.28;;;4.15;100.00
60976;BME280;46849;48.154;17.042;2022-11-15T00:12:49;99099.22;;;4.17;100.00
60976;BME280;46849;48.154;17.042;2022-11-15T00:15:56;99100.38;;;4.10;100.00
60976;BME280;46849;48.154;17.042;2022-11-15T00:19:00;99096.06;;;4.09;100.00
60976;BME280;46849;48.154;17.042;2022-11-15T00:22:03;99096.19;;;4.05;100.00
60976;BME280;46849;48.154;17.042;2022-11-15T00:25:07;99089.19;;;4.07;100.00
60976;BME280;46849;48.154;17.042;2022-11-15T00:28:12;99085.47;;;4.15;100.00
60976;BME280;46849;48.154;17.042;2022-11-15T00:31:17;99081.53;;;4.04;100.00
60976;BME280;46849;48.154;17.042;2022-11-15T00:34:20;99075.84;;;3.94;100.00
60976;BME280;46849;48.154;17.042;2022-11-15T00:37:24;99083.66;;;3.93;100.00
60976;BME280;46849;48.154;17.042;2022-11-15T00:40:27;99084.13;;;4.04;100.00
60976;BME280;46849;48.154;17.042;2022-11-15T00:43:31;99075.44;;;4.05;100.00
60976;BME280;46849;48.154;17.042;2022-11-15T00:46:35;99078.81;;;4.07;100.00
60976;BME280;46849;48.154;17.042;2022-11-15T00:49:39;99077.41;;;4.23;100.00
60976;BME280;46849;48.154;17.042;2022-11-15T00:52:46;99077.41;;;4.23;100.00
60976;BME280;46849;48.154;17.042;2022-11-15T00:55:55;99073.78;;;4.27;100.00
60976;BME280;46849;48.154;17.042;2022-11-15T00:59:01;99070.56;;;4.20;100.00
60976;BME280;46849;48.154;17.042;2022-11-15T01:02:05;99073.78;;;4.27;100.00
60976;BME280;46849;48.154;17.042;2022-11-15T01:05:08;99072.69;;;4.32;100.00
60976;BME280;46849;48.154;17.042;2022-11-15T01:08:13;99063.25;;;4.31;100.00
60976;BME280;46849;48.154;17.042;2022-11-15T01:11:18;99051.38;;;4.26;100.00
60976;BME280;46849;48.154;17.042;2022-11-15T01:14:24;99054.22;;;4.18;100.00
60976;BME280;46849;48.154;17.042;2022-11-15T01:17:29;99038.00;;;4.13;100.00
60976;BME280;46849;48.154;17.042;2022-11-15T01:20:33;99038.59;;;4.19;100.00
60976;BME280;46849;48.154;17.042;2022-11-15T01:23:40;99032.88;;;4.11;100.00
60976;BME280;46849;48.154;17.042;2022-11-15T01:26:59;99042.78;;;4.24;100.00
60976;BME280;46849;48.154;17.042;2022-11-15T01:30:02;99041.69;;;4.29;100.00
60976;BME280;46849;48.154;17.042;2022-11-15T01:33:07;99039.16;;;4.28;100.00
60976;BME280;46849;48.154;17.042;2022-11-15T01:36:20;99043.63;;;4.24;100.00
60976;BME280;46849;48.154;17.042;2022-11-15T01:39:27;99039.53;;;4.41;100.00
60976;BME280;46849;48.154;17.042;2022-11-15T01:42:30;99044.13;;;4.56;100.00
60976;BME280;46849;48.154;17.042;2022-11-15T01:45:34;99034.81;;;4.51;100.00
60976;BME280;46849;48.154;17.042;2022-11-15T01:48:39;99028.94;;;4.47;100.00
60976;BME280;46849;48.154;17.042;2022-11-15T01:51:42;99021.72;;;4.31;100.00
60976;BME280;46849;48.154;17.042;2022-11-15T01:54:49;99013.94;;;4.31;100.00
60976;BME280;46849;48.154;17.042;2022-11-15T01:57:57;99013.94;;;4.31;100.00
60976;BME280;46849;48.154;17.042;2022-11-15T02:01:03;99018.16;;;4.34;100.00
60976;BME280;46849;48.154;17.042;2022-11-15T02:04:21;99007.97;;;4.29;100.00
60976;BME280;46849;48.154;17.042;2022-11-15T02:07:32;99017.03;;;4.41;100.00
60976;BME280;46849;48.154;17.042;2022-11-15T02:10:35;99003.63;;;4.52;100.00
60976;BME280;46849;48.154;17.042;2022-11-15T02:13:39;99014.75;;;4.56;100.00
60976;BME280;46849;48.154;17.042;2022-11-15T02:29:51;99011.59;;;4.48;100.00
60976;BME280;46849;48.154;17.042;2022-11-15T02:36:36;99013.81;;;4.57;100.00
60976;BME280;46849;48.154;17.042;2022-11-15T02:42:57;99021.81;;;4.75;100.00
60976;BME280;46849;48.154;17.042;2022-11-15T02:49:54;99004.78;;;4.67;100.00
60976;BME280;46849;48.154;17.042;2022-11-15T02:53:00;99005.81;;;4.63;100.00
60976;BME280;46849;48.154;17.042;2022-11-15T02:56:09;98990.59;;;4.54;100.00
60976;BME280;46849;48.154;17.042;2022-11-15T03:03:17;98977.50;;;4.57;100.00
60976;BME280;46849;48.154;17.042;2022-11-15T03:13:18;98994.78;;;4.58;100.00
60976;BME280;46849;48.154;17.042;2022-11-15T03:16:37;98987.47;;;4.68;100.00
60976;BME280;46849;48.154;17.042;2022-11-15T03:19:45;98988.22;;;4.70;100.00
60976;BME280;46849;48.154;17.042;2022-11-15T03:22:51;98986.84;;;4.61;100.00
60976;BME280;46849;48.154;17.042;2022-11-15T03:25:59;98983.47;;;4.59;100.00
60976;BME280;46849;48.154;17.042;2022-11-15T03:29:18;98982.34;;;4.66;100.00
60976;BME280;46849;48.154;17.042;2022-11-15T03:32:28;98987.19;;;4.74;100.00
60976;BME280;46849;48.154;17.042;2022-11-15T03:35:43;98971.69;;;4.73;100.00
60976;BME280;46849;48.154;17.042;2022-11-15T03:38:48;98970.19;;;4.67;100.00
60976;BME280;46849;48.154;17.042;2022-11-15T03:42:21;98965.69;;;4.50;100.00
60976;BME280;46849;48.154;17.042;2022-11-15T03:45:35;98969.13;;;4.50;100.00
60976;BME280;46849;48.154;17.042;2022-11-15T03:48:47;98965.44;;;4.56;100.00
60976;BME280;46849;48.154;17.042;2022-11-15T03:51:53;98962.03;;;4.54;100.00
60976;BME280;46849;48.154;17.042;2022-11-15T03:55:01;98966.94;;;4.62;100.00
60976;BME280;46849;48.154;17.042;2022-11-15T03:58:06;98955.00;;;4.58;100.00
60976;BME280;46849;48.154;17.042;2022-11-15T04:01:10;98955.97;;;4.55;100.00
60976;BME280;46849;48.154;17.042;2022-11-15T04:04:13;98936.03;;;4.55;100.00
60976;BME280;46849;48.154;17.042;2022-11-15T04:07:17;98944.13;;;4.48;100.00
60976;BME280;46849;48.154;17.042;2022-11-15T04:10:21;98936.28;;;4.49;100.00
60976;BME280;46849;48.154;17.042;2022-11-15T04:13:25;98930.09;;;4.53;100.00
60976;BME280;46849;48.154;17.042;2022-11-15T04:16:28;98929.16;;;4.54;100.00
60976;BME280;46849;48.154;17.042;2022-11-15T04:19:32;98926.44;;;4.58;100.00
60976;BME280;46849;48.154;17.042;2022-11-15T04:22:56;98929.69;;;4.63;100.00
60976;BME280;46849;48.154;17.042;2022-11-15T04:26:21;98933.69;;;4.72;100.00
60976;BME280;46849;48.154;17.042;2022-11-15T04:29:26;98930.94;;;4.75;100.00
60976;BME280;46849;48.154;17.042;2022-11-15T04:32:39;98926.50;;;4.77;100.00
60976;BME280;46849;48.154;17.042;2022-11-15T04:35:42;98924.19;;;4.91;100.00
60976;BME280;46849;48.154;17.042;2022-11-15T04:38:46;98917.97;;;4.96;100.00
60976;BME280;46849;48.154;17.042;2022-11-15T04:41:50;98922.31;;;4.95;100.00
60976;BME280;46849;48.154;17.042;2022-11-15T04:44:54;98916.25;;;4.95;100.00
60976;BME280;46849;48.154;17.042;2022-11-15T04:47:57;98927.22;;;5.01;100.00
60976;BME280;46849;48.154;17.042;2022-11-15T04:51:03;98908.34;;;4.98;100.00
60976;BME280;46849;48.154;17.042;2022-11-15T04:54:08;98910.75;;;4.81;100.00
60976;BME280;46849;48.154;17.042;2022-11-15T04:57:11;98909.34;;;4.74;100.00
60976;BME280;46849;48.154;17.042;2022-11-15T05:00:17;98912.91;;;4.72;100.00
60976;BME280;46849;48.154;17.042;2022-11-15T05:03:21;98912.44;;;4.83;100.00
60976;BME280;46849;48.154;17.042;2022-11-15T05:06:48;98901.22;;;4.82;100.00
60976;BME280;46849;48.154;17.042;2022-11-15T05:09:52;98904.94;;;4.76;100.00
60976;BME280;46849;48.154;17.042;2022-11-15T05:12:59;98905.06;;;4.73;100.00
60976;BME280;46849;48.154;17.042;2022-11-15T05:16:02;98887.91;;;4.69;100.00
60976;BME280;46849;48.154;17.042;2022-11-15T05:19:08;98892.50;;;4.62;100.00
60976;BME280;46849;48.154;17.042;2022-11-15T05:22:20;98885.00;;;4.56;100.00
60976;BME280;46849;48.154;17.042;2022-11-15T05:25:40;98888.81;;;4.47;100.00
60976;BME280;46849;48.154;17.042;2022-11-15T05:28:45;98880.38;;;4.42;100.00
60976;BME280;46849;48.154;17.042;2022-11-15T05:31:51;98879.72;;;4.58;100.00
60976;BME280;46849;48.154;17.042;2022-11-15T05:34:56;98869.03;;;4.44;100.00
60976;BME280;46849;48.154;17.042;2022-11-15T05:37:59;98863.91;;;4.43;100.00
60976;BME280;46849;48.154;17.042;2022-11-15T05:41:04;98866.88;;;4.54;100.00
60976;BME280;46849;48.154;17.042;2022-11-15T05:44:11;98869.34;;;4.58;100.00
60976;BME280;46849;48.154;17.042;2022-11-15T05:47:21;98875.53;;;4.55;100.00
60976;BME280;46849;48.154;17.042;2022-11-15T05:50:27;98878.72;;;4.62;100.00
60976;BME280;46849;48.154;17.042;2022-11-15T05:53:31;98879.94;;;4.53;100.00
60976;BME280;46849;48.154;17.042;2022-11-15T05:56:35;98886.50;;;4.62;100.00
60976;BME280;46849;48.154;17.042;2022-11-15T05:59:38;98880.91;;;4.50;100.00
60976;BME280;46849;48.154;17.042;2022-11-15T06:02:44;98875.88;;;4.46;100.00
60976;BME280;46849;48.154;17.042;2022-11-15T06:05:47;98872.66;;;4.40;100.00
60976;BME280;46849;48.154;17.042;2022-11-15T06:08:50;98882.44;;;4.75;100.00
60976;BME280;46849;48.154;17.042;2022-11-15T06:11:54;98887.34;;;5.62;100.00
60976;BME280;46849;48.154;17.042;2022-11-15T06:14:57;98882.88;;;5.06;100.00
60976;BME280;46849;48.154;17.042;2022-11-15T06:18:02;98884.41;;;4.91;100.00
60976;BME280;46849;48.154;17.042;2022-11-15T06:21:05;98883.97;;;4.81;100.00
60976;BME280;46849;48.154;17.042;2022-11-15T06:24:09;98889.91;;;4.83;100.00
60976;BME280;46849;48.154;17.042;2022-11-15T06:27:12;98885.00;;;4.98;100.00
60976;BME280;46849;48.154;17.042;2022-11-15T06:30:15;98887.00;;;4.91;100.00
60976;BME280;46849;48.154;17.042;2022-11-15T06:33:20;98882.09;;;4.85;100.00
60976;BME280;46849;48.154;17.042;2022-11-15T06:36:23;98875.91;;;4.87;100.00
60976;BME280;46849;48.154;17.042;2022-11-15T06:39:26;98882.09;;;4.85;100.00
60976;BME280;46849;48.154;17.042;2022-11-15T06:42:30;98884.78;;;4.81;100.00
60976;BME280;46849;48.154;17.042;2022-11-15T06:45:35;98888.44;;;4.77;100.00
60976;BME280;46849;48.154;17.042;2022-11-15T06:48:38;98874.59;;;4.77;100.00
60976;BME280;46849;48.154;17.042;2022-11-15T06:51:41;98880.09;;;4.90;100.00
60976;BME280;46849;48.154;17.042;2022-11-15T06:54:45;98879.28;;;4.89;100.00
60976;BME280;46849;48.154;17.042;2022-11-15T06:57:49;98870.97;;;4.81;100.00
60976;BME280;46849;48.154;17.042;2022-11-15T07:00:53;98875.97;;;4.86;100.00
60976;BME280;46849;48.154;17.042;2022-11-15T07:03:56;98874.22;;;4.86;100.00
60976;BME280;46849;48.154;17.042;2022-11-15T07:07:00;98868.44;;;4.79;100.00
60976;BME280;46849;48.154;17.042;2022-11-15T07:10:05;98869.78;;;4.88;100.00
60976;BME280;46849;48.154;17.042;2022-11-15T07:13:10;98871.56;;;4.88;100.00
60976;BME280;46849;48.154;17.042;2022-11-15T07:16:13;98872.44;;;4.87;100.00
60976;BME280;46849;48.154;17.042;2022-11-15T07:19:16;98871.16;;;4.97;100.00
60976;BME280;46849;48.154;17.042;2022-11-15T07:22:21;98872.63;;;5.03;100.00
60976;BME280;46849;48.154;17.042;2022-11-15T07:25:26;98877.31;;;4.95;100.00
60976;BME280;46849;48.154;17.042;2022-11-15T07:28:33;98876.06;;;5.03;100.00
60976;BME280;46849;48.154;17.042;2022-11-15T07:31:37;98878.94;;;4.97;100.00
60976;BME280;46849;48.154;17.042;2022-11-15T07:34:40;98880.84;;;5.13;100.00
60976;BME280;46849;48.154;17.042;2022-11-15T07:37:44;98879.53;;;5.04;100.00
60976;BME280;46849;48.154;17.042;2022-11-15T07:40:48;98882.69;;;5.11;100.00
60976;BME280;46849;48.154;17.042;2022-11-15T07:43:58;98876.16;;;5.21;100.00
60976;BME280;46849;48.154;17.042;2022-11-15T07:47:01;98876.72;;;5.09;100.00
60976;BME280;46849;48.154;17.042;2022-11-15T07:50:05;98881.91;;;5.09;100.00
60976;BME280;46849;48.154;17.042;2022-11-15T07:53:09;98882.41;;;5.17;100.00
60976;BME280;46849;48.154;17.042;2022-11-15T07:56:13;98882.41;;;5.17;100.00
60976;BME280;46849;48.154;17.042;2022-11-15T07:59:16;98886.63;;;5.20;100.00
60976;BME280;46849;48.154;17.042;2022-11-15T08:02:20;98885.97;;;5.35;100.00
60976;BME280;46849;48.154;17.042;2022-11-15T08:05:22;98877.88;;;5.22;100.00
60976;BME280;46849;48.154;17.042;2022-11-15T08:08:26;98871.94;;;4.99;100.00
60976;BME280;46849;48.154;17.042;2022-11-15T08:11:29;98878.59;;;5.05;100.00
60976;BME280;46849;48.154;17.042;2022-11-15T08:14:35;98875.53;;;5.16;100.00
60976;BME280;46849;48.154;17.042;2022-11-15T08:17:38;98876.78;;;5.07;100.00
60976;BME280;46849;48.154;17.042;2022-11-15T08:20:42;98875.63;;;5.34;100.00
60976;BME280;46849;48.154;17.042;2022-11-15T08:23:46;98876.94;;;5.23;100.00
60976;BME280;46849;48.154;17.042;2022-11-15T08:26:49;98877.91;;;5.21;100.00
60976;BME280;46849;48.154;17.042;2022-11-15T08:29:52;98883.69;;;5.27;100.00
60976;BME280;46849;48.154;17.042;2022-11-15T08:32:57;98876.53;;;5.33;100.00
60976;BME280;46849;48.154;17.042;2022-11-15T08:36:01;98861.94;;;5.49;100.00
60976;BME280;46849;48.154;17.042;2022-11-15T08:39:04;98858.69;;;5.44;100.00
60976;BME280;46849;48.154;17.042;2022-11-15T08:42:08;98858.75;;;5.62;100.00
60976;BME280;46849;48.154;17.042;2022-11-15T08:45:13;98855.75;;;5.71;100.00
60976;BME280;46849;48.154;17.042;2022-11-15T08:48:16;98862.13;;;5.64;100.00
60976;BME280;46849;48.154;17.042;2022-11-15T08:51:20;98861.72;;;5.54;100.00
60976;BME280;46849;48.154;17.042;2022-11-15T08:54:23;98854.34;;;5.64;100.00
60976;BME280;46849;48.154;17.042;2022-11-15T08:57:28;98847.88;;;5.73;100.00
60976;BME280;46849;48.154;17.042;2022-11-15T09:00:33;98848.75;;;5.72;100.00
60976;BME280;46849;48.154;17.042;2022-11-15T09:03:39;98849.91;;;5.66;100.00
60976;BME280;46849;48.154;17.042;2022-11-15T09:06:43;98858.78;;;5.99;100.00
60976;BME280;46849;48.154;17.042;2022-11-15T09:09:46;98853.25;;;6.07;100.00
60976;BME280;46849;48.154;17.042;2022-11-15T09:12:49;98846.22;;;6.09;100.00
60976;BME280;46849;48.154;17.042;2022-11-15T09:15:52;98836.31;;;6.15;100.00
60976;BME280;46849;48.154;17.042;2022-11-15T09:18:59;98830.91;;;6.38;100.00
60976;BME280;46849;48.154;17.042;2022-11-15T09:22:05;98829.97;;;6.39;100.00
60976;BME280;46849;48.154;17.042;2022-11-15T09:25:09;98827.06;;;6.27;100.00
60976;BME280;46849;48.154;17.042;2022-11-15T09:28:12;98838.22;;;6.65;100.00
60976;BME280;46849;48.154;17.042;2022-11-15T09:31:15;98834.25;;;6.58;100.00
60976;BME280;46849;48.154;17.042;2022-11-15T09:34:20;98833.09;;;6.63;100.00
60976;BME280;46849;48.154;17.042;2022-11-15T09:37:23;98828.75;;;6.28;100.00
60976;BME280;46849;48.154;17.042;2022-11-15T09:40:27;98819.41;;;6.60;100.00
60976;BME280;46849;48.154;17.042;2022-11-15T09:47:28;98801.47;;;6.71;100.00
60976;BME280;46849;48.154;17.042;2022-11-15T09:50:46;98799.94;;;6.67;100.00
60976;BME280;46849;48.154;17.042;2022-11-15T09:53:42;98800.34;;;6.59;100.00
60976;BME280;46849;48.154;17.042;2022-11-15T09:56:35;98784.59;;;6.78;100.00
60976;BME280;46849;48.154;17.042;2022-11-15T10:05:28;98762.59;;;7.65;100.00
60976;BME280;46849;48.154;17.042;2022-11-15T10:08:25;98763.25;;;7.85;100.00
60976;BME280;46849;48.154;17.042;2022-11-15T10:11:19;98748.47;;;8.14;100.00
60976;BME280;46849;48.154;17.042;2022-11-15T10:17:05;98755.78;;;7.62;100.00
60976;BME280;46849;48.154;17.042;2022-11-15T10:23:06;98745.66;;;7.09;100.00
60976;BME280;46849;48.154;17.042;2022-11-15T10:25:56;98740.84;;;7.34;100.00
60976;BME280;46849;48.154;17.042;2022-11-15T10:28:42;98742.28;;;7.86;100.00
60976;BME280;46849;48.154;17.042;2022-11-15T10:31:29;98753.63;;;7.38;100.00
60976;BME280;46849;48.154;17.042;2022-11-15T10:34:18;98740.53;;;7.08;100.00
60976;BME280;46849;48.154;17.042;2022-11-15T10:37:04;98731.31;;;7.65;100.00
60976;BME280;46849;48.154;17.042;2022-11-15T10:40:13;98742.63;;;7.33;100.00
60976;BME280;46849;48.154;17.042;2022-11-15T10:43:11;98731.78;;;7.09;100.00
60976;BME280;46849;48.154;17.042;2022-11-15T10:46:24;98722.69;;;7.32;100.00
60976;BME280;46849;48.154;17.042;2022-11-15T10:49:21;98724.44;;;7.48;100.00
60976;BME280;46849;48.154;17.042;2022-11-15T10:57:51;98711.09;;;7.06;100.00
60976;BME280;46849;48.154;17.042;2022-11-15T11:00:37;98700.41;;;7.26;100.00
60976;BME280;46849;48.154;17.042;2022-11-15T11:03:34;98705.31;;;7.33;100.00
60976;BME280;46849;48.154;17.042;2022-11-15T11:06:19;98712.28;;;7.16;100.00
60976;BME280;46849;48.154;17.042;2022-11-15T11:09:05;98704.38;;;7.34;100.00
60976;BME280;46849;48.154;17.042;2022-11-15T11:11:51;98693.94;;;7.34;100.00
60976;BME280;46849;48.154;17.042;2022-11-15T11:14:39;98684.53;;;7.15;100.00
60976;BME280;46849;48.154;17.042;2022-11-15T11:20:25;98677.41;;;6.86;100.00
60976;BME280;46849;48.154;17.042;2022-11-15T11:23:37;98673.47;;;7.11;100.00
60976;BME280;46849;48.154;17.042;2022-11-15T11:26:40;98677.97;;;7.24;100.00
60976;BME280;46849;48.154;17.042;2022-11-15T11:29:44;98674.13;;;7.15;100.00
60976;BME280;46849;48.154;17.042;2022-11-15T11:50:53;98654.31;;;6.96;100.00
60976;BME280;46849;48.154;17.042;2022-11-15T11:56:36;98641.38;;;6.78;100.00
60976;BME280;46849;48.154;17.042;2022-11-15T11:59:31;98633.91;;;6.88;100.00
60976;BME280;46849;48.154;17.042;2022-11-15T12:02:39;98629.53;;;6.73;100.00
60976;BME280;46849;48.154;17.042;2022-11-15T12:08:47;98631.38;;;6.55;100.00
60976;BME280;46849;48.154;17.042;2022-11-15T12:14:33;98617.28;;;6.59;100.00
60976;BME280;46849;48.154;17.042;2022-11-15T12:17:24;98613.31;;;6.51;100.00
60976;BME280;46849;48.154;17.042;2022-11-15T12:20:33;98605.16;;;6.58;100.00
60976;BME280;46849;48.154;17.042;2022-11-15T12:23:27;98597.53;;;6.55;100.00
60976;BME280;46849;48.154;17.042;2022-11-15T12:26:56;98585.19;;;6.58;100.00
60976;BME280;46849;48.154;17.042;2022-11-15T12:29:41;98584.59;;;6.53;100.00
60976;BME280;46849;48.154;17.042;2022-11-15T12:32:36;98573.78;;;6.61;100.00
60976;BME280;46849;48.154;17.042;2022-11-15T12:35:42;98569.22;;;6.64;100.00
60976;BME280;46849;48.154;17.042;2022-11-15T12:39:07;98563.13;;;6.49;100.00
60976;BME280;46849;48.154;17.042;2022-11-15T12:47:34;98558.81;;;6.48;100.00
60976;BME280;46849;48.154;17.042;2022-11-15T12:53:39;98554.81;;;6.43;100.00
60976;BME280;46849;48.154;17.042;2022-11-15T12:56:24;98548.84;;;6.57;100.00
60976;BME280;46849;48.154;17.042;2022-11-15T13:03:16;98538.94;;;6.63;100.00
60976;BME280;46849;48.154;17.042;2022-11-15T13:06:05;98535.91;;;6.55;100.00
60976;BME280;46849;48.154;17.042;2022-11-15T13:08:50;98534.91;;;6.41;100.00
60976;BME280;46849;48.154;17.042;2022-11-15T13:11:51;98533.75;;;6.47;100.00
60976;BME280;46849;48.154;17.042;2022-11-15T13:25:56;98513.69;;;6.33;100.00
60976;BME280;46849;48.154;17.042;2022-11-15T13:28:47;98518.56;;;6.23;100.00
60976;BME280;46849;48.154;17.042;2022-11-15T13:31:41;98509.06;;;6.22;100.00
60976;BME280;46849;48.154;17.042;2022-11-15T13:34:31;98510.41;;;6.30;100.00
60976;BME280;46849;48.154;17.042;2022-11-15T13:40:28;98506.78;;;6.32;100.00
60976;BME280;46849;48.154;17.042;2022-11-15T13:49:12;98489.50;;;6.31;100.00
60976;BME280;46849;48.154;17.042;2022-11-15T13:51:57;98479.09;;;6.31;100.00
60976;BME280;46849;48.154;17.042;2022-11-15T13:54:45;98471.63;;;6.41;100.00
60976;BME280;46849;48.154;17.042;2022-11-15T13:57:48;98471.81;;;6.38;100.00
60976;BME280;46849;48.154;17.042;2022-11-15T14:03:35;98459.44;;;6.41;100.00
60976;BME280;46849;48.154;17.042;2022-11-15T14:06:28;98446.41;;;6.41;100.00
60976;BME280;46849;48.154;17.042;2022-11-15T14:09:25;98443.25;;;6.36;100.00
60976;BME280;46849;48.154;17.042;2022-11-15T14:12:33;98444.41;;;6.47;100.00
60976;BME280;46849;48.154;17.042;2022-11-15T14:15:28;98433.31;;;6.43;100.00
60976;BME280;46849;48.154;17.042;2022-11-15T14:18:46;98439.09;;;6.48;100.00
60976;BME280;46849;48.154;17.042;2022-11-15T14:21:31;98432.94;;;6.35;100.00
60976;BME280;46849;48.154;17.042;2022-11-15T14:24:19;98432.19;;;6.33;100.00
60976;BME280;46849;48.154;17.042;2022-11-15T14:27:26;98425.94;;;6.35;100.00
60976;BME280;46849;48.154;17.042;2022-11-15T14:30:15;98428.56;;;6.35;100.00
60976;BME280;46849;48.154;17.042;2022-11-15T14:33:01;98425.38;;;6.46;100.00
60976;BME280;46849;48.154;17.042;2022-11-15T14:35:47;98422.91;;;6.43;100.00
60976;BME280;46849;48.154;17.042;2022-11-15T14:38:32;98423.50;;;6.48;100.00
60976;BME280;46849;48.154;17.042;2022-11-15T14:44:02;98419.72;;;6.54;100.00
60976;BME280;46849;48.154;17.042;2022-11-15T14:46:50;98422.72;;;6.62;100.00
60976;BME280;46849;48.154;17.042;2022-11-15T14:49:36;98425.22;;;6.64;100.00
60976;BME280;46849;48.154;17.042;2022-11-15T14:52:24;98429.13;;;6.71;100.00
60976;BME280;46849;48.154;17.042;2022-11-15T14:55:21;98422.09;;;6.73;100.00
60976;BME280;46849;48.154;17.042;2022-11-15T14:58:08;98424.78;;;6.72;100.00
60976;BME280;46849;48.154;17.042;2022-11-15T15:00:53;98424.88;;;6.70;100.00
60976;BME280;46849;48.154;17.042;2022-11-15T15:04:03;98414.00;;;7.95;100.00
60976;BME280;46849;48.154;17.042;2022-11-15T15:06:52;98413.28;;;7.78;100.00
60976;BME280;46849;48.154;17.042;2022-11-15T15:09:47;98417.97;;;7.58;100.00
60976;BME280;46849;48.154;17.042;2022-11-15T15:12:38;98416.16;;;7.00;100.00
60976;BME280;46849;48.154;17.042;2022-11-15T15:15:34;98402.84;;;6.90;100.00
60976;BME280;46849;48.154;17.042;2022-11-15T15:18:23;98404.91;;;6.85;100.00
60976;BME280;46849;48.154;17.042;2022-11-15T15:21:36;98398.38;;;6.78;100.00
60976;BME280;46849;48.154;17.042;2022-11-15T15:24:23;98406.41;;;7.19;100.00
60976;BME280;46849;48.154;17.042;2022-11-15T15:27:09;98408.63;;;6.96;100.00
60976;BME280;46849;48.154;17.042;2022-11-15T15:29:54;98400.16;;;6.92;100.00
60976;BME280;46849;48.154;17.042;2022-11-15T15:32:38;98406.22;;;6.93;100.00
60976;BME280;46849;48.154;17.042;2022-11-15T15:35:30;98412.38;;;7.35;100.00
60976;BME280;46849;48.154;17.042;2022-11-15T15:38:16;98400.00;;;6.95;100.00
60976;BME280;46849;48.154;17.042;2022-11-15T15:41:15;98406.88;;;6.96;100.00
60976;BME280;46849;48.154;17.042;2022-11-15T15:44:01;98404.38;;;7.38;100.00
60976;BME280;46849;48.154;17.042;2022-11-15T15:46:46;98399.63;;;7.01;100.00
60976;BME280;46849;48.154;17.042;2022-11-15T15:49:32;98391.94;;;8.13;100.00
60976;BME280;46849;48.154;17.042;2022-11-15T15:52:17;98402.34;;;7.29;100.00
60976;BME280;46849;48.154;17.042;2022-11-15T15:55:03;98401.22;;;7.04;100.00
60976;BME280;46849;48.154;17.042;2022-11-15T15:57:51;98393.22;;;7.07;100.00
60976;BME280;46849;48.154;17.042;2022-11-15T16:00:36;98392.81;;;6.99;100.00
60976;BME280;46849;48.154;17.042;2022-11-15T16:03:21;98395.53;;;6.97;100.00
60976;BME280;46849;48.154;17.042;2022-11-15T16:09:19;98383.53;;;6.95;100.00
60976;BME280;46849;48.154;17.042;2022-11-15T16:12:31;98396.75;;;6.92;100.00
60976;BME280;46849;48.154;17.042;2022-11-15T16:15:18;98399.16;;;6.95;100.00
60976;BME280;46849;48.154;17.042;2022-11-15T16:18:04;98396.28;;;6.99;100.00
60976;BME280;46849;48.154;17.042;2022-11-15T16:20:50;98397.03;;;7.01;100.00
60976;BME280;46849;48.154;17.042;2022-11-15T16:23:36;98397.03;;;7.16;100.00
60976;BME280;46849;48.154;17.042;2022-11-15T16:26:24;98397.50;;;7.08;100.00
60976;BME280;46849;48.154;17.042;2022-11-15T16:29:10;98399.91;;;7.11;100.00
60976;BME280;46849;48.154;17.042;2022-11-15T16:31:56;98398.88;;;7.14;100.00
60976;BME280;46849;48.154;17.042;2022-11-15T16:34:41;98390.59;;;7.07;100.00
60976;BME280;46849;48.154;17.042;2022-11-15T16:37:26;98387.09;;;7.08;100.00
60976;BME280;46849;48.154;17.042;2022-11-15T16:40:31;98383.25;;;7.14;100.00
60976;BME280;46849;48.154;17.042;2022-11-15T16:43:18;98386.00;;;7.69;100.00
60976;BME280;46849;48.154;17.042;2022-11-15T16:46:13;98384.38;;;7.24;100.00
60976;BME280;46849;48.154;17.042;2022-11-15T16:48:58;98375.81;;;7.08;100.00
60976;BME280;46849;48.154;17.042;2022-11-15T16:51:47;98372.19;;;7.10;100.00
60976;BME280;46849;48.154;17.042;2022-11-15T16:54:33;98372.00;;;7.13;100.00
60976;BME280;46849;48.154;17.042;2022-11-15T16:57:21;98371.81;;;7.17;100.00
60976;BME280;46849;48.154;17.042;2022-11-15T17:00:10;98363.69;;;7.07;100.00
60976;BME280;46849;48.154;17.042;2022-11-15T17:02:57;98371.47;;;7.08;100.00
60976;BME280;46849;48.154;17.042;2022-11-15T17:05:42;98368.75;;;6.95;100.00
60976;BME280;46849;48.154;17.042;2022-11-15T17:08:27;98370.69;;;7.06;100.00
60976;BME280;46849;48.154;17.042;2022-11-15T17:11:18;98369.94;;;7.04;100.00
60976;BME280;46849;48.154;17.042;2022-11-15T17:14:03;98378.41;;;7.08;100.00
60976;BME280;46849;48.154;17.042;2022-11-15T17:16:47;98380.38;;;7.19;100.00
60976;BME280;46849;48.154;17.042;2022-11-15T17:19:32;98375.81;;;7.08;100.00
60976;BME280;46849;48.154;17.042;2022-11-15T17:22:17;98378.41;;;7.08;100.00
60976;BME280;46849;48.154;17.042;2022-11-15T17:25:04;98369.00;;;7.20;100.00
60976;BME280;46849;48.154;17.042;2022-11-15T17:27:49;98374.22;;;7.20;100.00
60976;BME280;46849;48.154;17.042;2022-11-15T17:30:34;98377.38;;;7.10;100.00
60976;BME280;46849;48.154;17.042;2022-11-15T17:33:20;98375.16;;;7.33;100.00
60976;BME280;46849;48.154;17.042;2022-11-15T17:36:07;98365.88;;;7.14;100.00
60976;BME280;46849;48.154;17.042;2022-11-15T17:38:52;98354.88;;;6.95;100.00
60976;BME280;46849;48.154;17.042;2022-11-15T17:41:41;98361.19;;;6.90;100.00
60976;BME280;46849;48.154;17.042;2022-11-15T17:44:27;98353.38;;;7.34;100.00
60976;BME280;46849;48.154;17.042;2022-11-15T17:47:13;98365.41;;;7.08;100.00